Time;durP1;ratioP1;P1;durP2;ratioP2;P2;SDS_P1;SDS_P2;PMS_P1;PMS_P2;Temp;Humidity;BMP_temperature;BMP_pressure;BME280_temperature;BME280_humidity;BME280_pressure;Samples;Min_cycle;Max_cycle;Signal;HPM_P1;HPM_P2
2022/06/19 00:00:34;;;;;;;;;;;23.80;59.30;;;;;;20801445;28;19940;-76
2022/06/19 00:10:34;;;;;;;;;;;23.80;59.20;;;;;;20798950;28;19917;-75
2022/06/19 00:20:35;;;;;;;;;;;23.80;59.20;;;;;;20798464;28;19917;-75
2022/06/19 00:30:36;;;;;;;;;;;23.80;59.20;;;;;;20798687;28;20279;-74
2022/06/19 00:40:36;;;;;;;;;;;23.80;59.10;;;;;;20812513;28;19931;-74
2022/06/19 00:50:37;;;;;;;;;;;23.80;59.10;;;;;;20828569;28;19925;-75
2022/06/19 01:00:37;;;;;;;;;;;23.80;59.00;;;;;;20795592;28;20271;-75
2022/06/19 01:10:40;;;;;;;;;;;23.70;59.00;;;;;;20810853;28;19924;-74
2022/06/19 01:20:41;;;;;;;;;;;23.70;58.90;;;;;;20808566;28;19917;-74
2022/06/19 01:30:41;;;;;;;;;;;23.80;59.00;;;;;;20822929;28;19920;-74
2022/06/19 01:40:42;;;;;;;;;;;23.70;58.90;;;;;;20791514;28;20063;-75
2022/06/19 01:50:43;;;;;;;;;;;23.70;58.90;;;;;;20807088;28;20272;-75
2022/06/19 02:00:45;;;;;;;;;;;23.70;58.90;;;;;;20790698;28;19921;-74
2022/06/19 02:10:45;;;;;;;;;;;23.70;58.90;;;;;;20806609;28;20382;-74
2022/06/19 02:20:46;;;;;;;;;;;23.70;58.90;;;;;;20790406;28;19967;-74
2022/06/19 02:30:47;;;;;;;;;;;23.70;59.50;;;;;;20790155;28;20371;-74
2022/06/19 02:40:58;;;;;;;;;;;23.70;58.90;;;;;;20772123;28;20007;-75
2022/06/19 02:50:59;;;;;;;;;;;23.60;58.80;;;;;;20804949;28;19917;-74
2022/06/19 03:01:00;;;;;;;;;;;23.60;58.80;;;;;;20804808;28;19921;-74
2022/06/19 03:11:03;;;;;;;;;;;23.70;58.80;;;;;;20805457;28;19924;-75
2022/06/19 03:21:04;;;;;;;;;;;23.60;58.70;;;;;;20820769;28;20521;-74
2022/06/19 03:31:04;;;;;;;;;;;23.60;58.70;;;;;;20804621;28;19921;-74
2022/06/19 03:41:05;;;;;;;;;;;23.60;58.70;;;;;;20808894;28;19939;-75
2022/06/19 03:51:06;;;;;;;;;;;23.60;58.60;;;;;;20802012;28;19917;-74
2022/06/19 04:01:06;;;;;;;;;;;23.50;58.50;;;;;;20834663;28;19972;-74
2022/06/19 04:11:07;;;;;;;;;;;23.50;58.50;;;;;;20783658;28;19927;-75
2022/06/19 04:21:10;;;;;;;;;;;23.60;58.50;;;;;;20814858;28;19973;-74
2022/06/19 04:31:11;;;;;;;;;;;23.50;58.40;;;;;;20814266;28;19917;-75
2022/06/19 04:41:18;;;;;;;;;;;23.50;58.40;;;;;;20813402;28;19917;-74
2022/06/19 04:51:19;;;;;;;;;;;23.50;58.40;;;;;;20812373;28;19924;-75
2022/06/19 05:01:23;;;;;;;;;;;23.50;58.40;;;;;;20795392;28;19917;-75
2022/06/19 05:11:24;;;;;;;;;;;23.50;58.40;;;;;;20828248;28;19917;-75
2022/06/19 05:21:24;;;;;;;;;;;23.50;58.50;;;;;;20810006;28;20454;-75
2022/06/19 05:31:25;;;;;;;;;;;23.50;58.50;;;;;;20774328;28;19925;-75
2022/06/19 05:41:28;;;;;;;;;;;23.50;58.60;;;;;;20814824;28;19971;-74
2022/06/19 05:51:28;;;;;;;;;;;23.50;58.60;;;;;;20825555;28;19960;-75
2022/06/19 06:01:29;;;;;;;;;;;23.50;58.60;;;;;;20806393;28;19924;-75
2022/06/19 06:11:29;;;;;;;;;;;23.60;58.60;;;;;;20806703;28;19917;-75
2022/06/19 06:21:30;;;;;;;;;;;23.60;58.60;;;;;;20806173;28;19925;-75
2022/06/19 06:31:30;;;;;;;;;;;23.60;58.60;;;;;;20820893;28;19916;-71
2022/06/19 06:41:31;;;;;;;;;;;23.60;58.60;;;;;;20817025;28;19923;-73
2022/06/19 06:51:32;;;;;;;;;;;23.60;58.60;;;;;;20804606;28;20041;-75
2022/06/19 07:01:32;;;;;;;;;;;23.60;58.60;;;;;;20784028;28;19960;-75
2022/06/19 07:11:37;;;;;;;;;;;23.60;58.50;;;;;;20807038;28;19917;-77
2022/06/19 07:21:37;;;;;;;;;;;23.70;58.60;;;;;;20805859;28;19920;-78
2022/06/19 07:41:55;;;;;;;;;;;23.70;58.50;;;;;;21123550;22;19925;-73
2022/06/19 07:51:56;;;;;;;;;;;23.70;58.40;;;;;;20869694;28;19934;-74
2022/06/19 08:01:56;;;;;;;;;;;23.70;58.40;;;;;;20865452;28;20002;-76
2022/06/19 08:11:57;;;;;;;;;;;23.70;58.30;;;;;;20862583;28;19921;-81
2022/06/19 08:21:57;;;;;;;;;;;23.80;58.40;;;;;;20877036;28;19928;-76
2022/06/19 08:31:58;;;;;;;;;;;23.70;58.30;;;;;;20856143;28;19966;-74
2022/06/19 08:42:22;;;;;;;;;;;23.70;58.30;;;;;;20888511;28;20290;-74
2022/06/19 08:52:43;;;;;;;;;;;23.80;58.30;;;;;;20881733;28;19913;-74
2022/06/19 09:02:51;;;;;;;;;;;23.80;58.30;;;;;;20893906;28;19928;-79
2022/06/19 09:13:02;;;;;;;;;;;23.80;58.30;;;;;;20856438;28;19913;-78
2022/06/19 09:23:35;;;;;;;;;;;23.80;58.30;;;;;;20877875;28;19921;-81
2022/06/19 09:33:39;;;;;;;;;;;23.80;58.40;;;;;;20861008;28;19939;-77
2022/06/19 09:44:03;;;;;;;;;;;23.80;58.50;;;;;;20875412;28;19921;-75
2022/06/19 09:54:06;;;;;;;;;;;23.80;58.30;;;;;;20873055;28;19920;-83
2022/06/19 10:04:10;;;;;;;;;;;23.80;58.30;;;;;;20859248;28;20395;-78
2022/06/19 10:14:13;;;;;;;;;;;23.80;58.30;;;;;;20887832;28;20693;-74
2022/06/19 10:24:23;;;;;;;;;;;23.80;58.20;;;;;;20873705;28;19952;-76
2022/06/19 10:34:42;;;;;;;;;;;23.90;58.40;;;;;;20887702;28;19975;-81
2022/06/19 10:44:56;;;;;;;;;;;23.80;58.40;;;;;;20884452;28;19912;-78
2022/06/19 10:54:59;;;;;;;;;;;23.80;58.40;;;;;;20901222;28;20337;-75
2022/06/19 11:05:01;;;;;;;;;;;23.80;58.50;;;;;;20857262;28;20463;-76
2022/06/19 11:15:03;;;;;;;;;;;23.80;58.50;;;;;;20867435;28;19928;-77
2022/06/19 11:25:15;;;;;;;;;;;23.80;58.60;;;;;;20885145;28;19920;-81
2022/06/19 11:35:16;;;;;;;;;;;23.80;58.50;;;;;;20882772;28;19972;-78
2022/06/19 11:45:16;;;;;;;;;;;23.80;58.50;;;;;;20853853;28;19920;-79
2022/06/19 11:55:27;;;;;;;;;;;23.80;58.50;;;;;;20871167;28;19936;-79
2022/06/19 12:05:36;;;;;;;;;;;23.90;58.50;;;;;;20873124;28;19959;-80
2022/06/19 12:15:37;;;;;;;;;;;23.80;58.40;;;;;;20880254;28;19935;-79
2022/06/19 12:25:40;;;;;;;;;;;23.80;58.40;;;;;;20880527;28;19921;-79
2022/06/19 12:35:41;;;;;;;;;;;23.80;58.40;;;;;;20889883;28;20008;-78
2022/06/19 12:45:45;;;;;;;;;;;23.90;58.40;;;;;;20877630;28;19920;-80
2022/06/19 12:55:52;;;;;;;;;;;23.90;58.40;;;;;;20876798;28;19928;-79
2022/06/19 13:06:02;;;;;;;;;;;23.90;58.40;;;;;;20878130;28;19916;-79
2022/06/19 13:16:12;;;;;;;;;;;23.90;58.40;;;;;;20893359;28;19921;-80
2022/06/19 13:36:56;;;;;;;;;;;24.00;58.30;;;;;;20907742;28;20377;-79
2022/06/19 13:46:58;;;;;;;;;;;24.00;58.30;;;;;;20870678;28;19966;-79
2022/06/19 13:57:02;;;;;;;;;;;24.00;58.30;;;;;;20872106;28;19982;-78
2022/06/19 14:07:14;;;;;;;;;;;24.00;58.20;;;;;;20877107;28;20050;-78
2022/06/19 14:17:15;;;;;;;;;;;24.10;58.20;;;;;;20860630;28;19921;-80
2022/06/19 14:27:19;;;;;;;;;;;24.10;58.10;;;;;;20878590;28;19913;-79
2022/06/19 14:37:31;;;;;;;;;;;24.20;58.10;;;;;;20857720;28;19921;-79
2022/06/19 14:47:42;;;;;;;;;;;24.30;58.00;;;;;;20853329;28;19919;-77
2022/06/19 14:57:54;;;;;;;;;;;24.30;58.00;;;;;;20889515;28;19924;-79
2022/06/19 15:07:58;;;;;;;;;;;24.30;58.10;;;;;;20873830;28;19939;-78
2022/06/19 15:18:11;;;;;;;;;;;24.20;58.10;;;;;;20873761;28;19920;-75
2022/06/19 15:28:12;;;;;;;;;;;24.20;58.00;;;;;;20874787;28;20027;-79
2022/06/19 15:38:18;;;;;;;;;;;24.20;57.50;;;;;;20879352;28;19925;-77
2022/06/19 15:48:30;;;;;;;;;;;24.10;57.10;;;;;;20904294;28;20366;-77
2022/06/19 15:58:35;;;;;;;;;;;24.10;56.80;;;;;;20874733;28;20386;-79
2022/06/19 16:08:40;;;;;;;;;;;24.10;56.50;;;;;;20882698;28;19992;-81
2022/06/19 16:18:41;;;;;;;;;;;24.00;56.40;;;;;;20897727;28;19928;-80
2022/06/19 16:28:42;;;;;;;;;;;24.00;56.00;;;;;;20879793;28;19913;-80
2022/06/19 16:49:21;;;;;;;;;;;23.90;56.00;;;;;;20879006;28;20007;-79
2022/06/19 16:59:22;;;;;;;;;;;23.90;55.80;;;;;;20878484;28;19924;-75
2022/06/19 17:09:41;;;;;;;;;;;24.10;55.70;;;;;;20891738;28;19928;-77
2022/06/19 17:20:11;;;;;;;;;;;24.10;55.60;;;;;;20877006;28;19924;-84
2022/06/19 17:30:13;;;;;;;;;;;24.10;55.40;;;;;;20861670;28;19917;-79
2022/06/19 17:40:25;;;;;;;;;;;24.20;55.20;;;;;;20863941;28;19928;-79
2022/06/19 17:50:42;;;;;;;;;;;24.20;55.20;;;;;;20875707;28;19913;-79
2022/06/19 18:00:56;;;;;;;;;;;24.10;55.10;;;;;;20855176;28;20371;-80
2022/06/19 18:10:57;;;;;;;;;;;24.00;55.20;;;;;;20875636;28;20053;-82
2022/06/19 18:20:59;;;;;;;;;;;23.80;55.10;;;;;;20864674;28;19925;-77
2022/06/19 18:30:59;;;;;;;;;;;23.90;55.10;;;;;;20872789;28;19996;-76
2022/06/19 18:41:00;;;;;;;;;;;23.80;55.30;;;;;;20875652;28;20531;-76
2022/06/19 18:51:01;;;;;;;;;;;23.60;55.40;;;;;;20871066;28;19912;-76
2022/06/19 19:01:01;;;;;;;;;;;23.50;55.30;;;;;;20878111;28;19939;-76
2022/06/19 19:11:02;;;;;;;;;;;23.40;55.30;;;;;;20878706;28;19917;-76
2022/06/19 19:21:03;;;;;;;;;;;23.40;55.10;;;;;;20883340;28;19920;-76
2022/06/19 19:31:04;;;;;;;;;;;23.30;55.50;;;;;;20861146;28;20274;-75
2022/06/19 19:41:05;;;;;;;;;;;23.30;55.90;;;;;;20867550;28;19964;-75
2022/06/19 19:51:05;;;;;;;;;;;23.30;56.30;;;;;;20898792;28;19966;-75
2022/06/19 20:01:06;;;;;;;;;;;23.20;56.60;;;;;;20882786;28;19921;-75
2022/06/19 20:11:06;;;;;;;;;;;23.10;56.80;;;;;;20880793;28;19982;-75
2022/06/19 20:21:07;;;;;;;;;;;23.20;57.00;;;;;;20897724;28;19944;-75
2022/06/19 20:31:10;;;;;;;;;;;23.20;56.90;;;;;;20880331;28;19924;-75
2022/06/19 20:51:29;;;;;;;;;;;23.20;56.90;;;;;;20881480;28;19913;-76
2022/06/19 21:01:30;;;;;;;;;;;23.20;57.00;;;;;;20875219;28;19927;-75
2022/06/19 21:11:30;;;;;;;;;;;23.20;57.10;;;;;;20893598;28;19913;-75
2022/06/19 21:21:33;;;;;;;;;;;23.20;57.20;;;;;;20877035;28;19920;-77
2022/06/19 21:31:34;;;;;;;;;;;23.10;57.10;;;;;;20875654;28;19913;-75
2022/06/19 21:41:37;;;;;;;;;;;23.00;57.40;;;;;;20873190;28;20347;-74
2022/06/19 21:51:38;;;;;;;;;;;22.90;57.70;;;;;;20874424;28;19963;-74
2022/06/19 22:01:39;;;;;;;;;;;23.00;57.50;;;;;;20873111;28;19928;-74
2022/06/19 22:21:59;;;;;;;;;;;22.90;57.40;;;;;;20874715;28;20272;-74
2022/06/19 22:31:59;;;;;;;;;;;22.90;57.70;;;;;;20871979;28;20003;-75
2022/06/19 22:42:00;;;;;;;;;;;22.90;57.80;;;;;;20876893;28;19920;-74
2022/06/19 22:52:01;;;;;;;;;;;22.80;57.80;;;;;;20898303;28;19952;-74
2022/06/19 23:02:01;;;;;;;;;;;22.80;57.80;;;;;;20897689;28;19928;-74
2022/06/19 23:12:02;;;;;;;;;;;22.80;57.80;;;;;;20897661;28;20252;-74
2022/06/19 23:22:02;;;;;;;;;;;22.80;57.90;;;;;;20897791;28;20005;-76
2022/06/19 23:32:05;;;;;;;;;;;22.70;57.90;;;;;;20880523;28;21560;-76
2022/06/19 23:42:11;;;;;;;;;;;22.70;57.90;;;;;;20883941;28;19963;-75
2022/06/19 23:52:11;;;;;;;;;;;22.70;58.00;;;;;;20895854;28;20450;-75
